createdAt,value
2022-12-23T00:01:52.426Z,9.15
2022-12-23T00:06:55.333Z,10.10
2022-12-23T00:12:17.296Z,10.50
2022-12-23T00:17:23.480Z,9.53
2022-12-23T00:22:55.867Z,11.55
2022-12-23T00:28:02.241Z,11.57
2022-12-23T00:33:05.797Z,10.25
2022-12-23T00:38:08.630Z,11.68
2022-12-23T00:43:12.897Z,12.23
2022-12-23T00:48:33.395Z,9.45
2022-12-23T00:53:36.179Z,13.68
2022-12-23T00:58:40.410Z,15.18
2022-12-23T01:04:00.544Z,14.77
2022-12-23T01:09:03.361Z,18.05
2022-12-23T01:14:09.263Z,18.30
2022-12-23T01:19:12.711Z,15.73
2022-12-23T01:24:15.586Z,17.27
2022-12-23T01:29:19.767Z,15.77
2022-12-23T01:34:22.513Z,15.82
2022-12-23T01:39:25.271Z,20.98
2022-12-23T01:44:50.424Z,19.88
2022-12-23T01:49:57.572Z,19.70
2022-12-23T01:55:00.414Z,24.42
2022-12-23T02:00:23.304Z,17.05
2022-12-23T02:05:26.156Z,17.75
2022-12-23T02:10:43.213Z,22.58
2022-12-23T02:16:11.570Z,24.75
2022-12-23T02:21:37.034Z,17.67
2022-12-23T02:27:02.603Z,19.80
2022-12-23T02:32:11.864Z,20.48
2022-12-23T02:37:21.227Z,20.20
2022-12-23T02:42:27.104Z,13.85
2022-12-23T02:47:36.163Z,15.52
2022-12-23T02:52:42.267Z,7.88
2022-12-23T02:57:48.707Z,11.85
2022-12-23T03:02:52.954Z,15.20
2022-12-23T03:08:00.569Z,15.68
2022-12-23T03:13:11.195Z,18.73
2022-12-23T03:18:29.289Z,17.42
2022-12-23T03:23:38.542Z,15.27
2022-12-23T03:28:46.041Z,12.68
2022-12-23T03:33:55.737Z,15.43
2022-12-23T03:38:59.096Z,17.23
2022-12-23T03:44:06.491Z,20.52
2022-12-23T03:49:16.963Z,21.08
2022-12-23T03:54:25.612Z,16.13
2022-12-23T03:59:31.540Z,18.17
2022-12-23T04:04:48.226Z,13.48
2022-12-23T04:09:53.815Z,13.38
2022-12-23T04:14:56.611Z,12.25
2022-12-23T04:20:00.736Z,11.15
2022-12-23T04:25:03.595Z,11.77
2022-12-23T04:30:08.485Z,8.85
2022-12-23T04:35:13.200Z,9.25
2022-12-23T04:40:16.136Z,7.78
2022-12-23T04:45:18.846Z,5.03
2022-12-23T04:50:23.089Z,7.05
2022-12-23T04:55:25.831Z,5.93
2022-12-23T05:00:30.617Z,7.57
2022-12-23T05:05:43.453Z,6.75
2022-12-23T05:10:46.635Z,8.93
2022-12-23T05:15:51.330Z,8.23
2022-12-23T05:20:55.561Z,10.02
2022-12-23T05:25:58.301Z,9.35
2022-12-23T05:31:01.909Z,10.70
2022-12-23T05:36:07.290Z,10.13
2022-12-23T05:41:10.090Z,11.90
2022-12-23T05:46:12.933Z,9.27
2022-12-23T05:51:17.203Z,12.18
2022-12-23T05:56:20.002Z,12.20
2022-12-23T06:01:22.802Z,11.85
2022-12-23T06:06:26.946Z,10.95
2022-12-23T06:11:29.773Z,10.05
2022-12-23T06:16:32.737Z,9.85
2022-12-23T06:21:36.994Z,10.95
2022-12-23T06:26:39.837Z,12.13
2022-12-23T06:31:42.620Z,14.57
2022-12-23T06:36:46.765Z,16.50
2022-12-23T06:41:49.744Z,15.27
2022-12-23T06:46:52.456Z,16.40
2022-12-23T06:51:56.959Z,16.08
2022-12-23T06:56:59.773Z,15.13
2022-12-23T07:02:02.617Z,15.95
2022-12-23T07:07:06.915Z,16.05
2022-12-23T07:12:09.913Z,16.98
2022-12-23T07:17:12.729Z,17.63
2022-12-23T07:22:16.917Z,17.25
2022-12-23T07:27:19.673Z,17.27
2022-12-23T07:32:22.428Z,6.38
2022-12-23T07:37:26.492Z,14.48
2022-12-23T07:42:46.471Z,12.10
2022-12-23T07:47:53.493Z,15.05
2022-12-23T07:52:57.615Z,11.05
2022-12-23T07:58:00.420Z,9.98
2022-12-23T08:03:03.303Z,14.88
2022-12-23T08:08:07.623Z,13.80
2022-12-23T08:13:10.405Z,13.50
2022-12-23T08:18:13.148Z,14.27
2022-12-23T08:23:22.950Z,14.48
2022-12-23T08:28:27.418Z,15.57
2022-12-23T08:33:30.441Z,17.65
2022-12-23T08:38:34.946Z,17.45
2022-12-23T08:43:37.804Z,20.58
2022-12-23T08:48:46.946Z,19.50
2022-12-23T08:54:00.223Z,19.95
2022-12-23T08:59:04.619Z,19.63
2022-12-23T09:04:08.178Z,23.27
2022-12-23T09:09:14.384Z,19.63
2022-12-23T09:14:17.175Z,21.35
2022-12-23T09:19:20.443Z,19.60
2022-12-23T09:24:24.588Z,18.35
2022-12-23T09:29:27.458Z,20.38
2022-12-23T09:34:30.275Z,19.70
2022-12-23T09:39:34.412Z,19.42
2022-12-23T09:44:53.053Z,18.95
2022-12-23T09:49:59.389Z,20.52
2022-12-23T09:55:03.748Z,19.05
2022-12-23T10:00:14.008Z,20.67
2022-12-23T10:05:24.576Z,19.92
2022-12-23T10:10:35.545Z,20.88
2022-12-23T10:15:42.499Z,20.33
2022-12-23T10:20:50.263Z,20.63
2022-12-23T10:25:55.694Z,19.88
2022-12-23T10:31:38.108Z,20.10
2022-12-23T10:36:39.158Z,20.38
2022-12-23T10:41:49.869Z,19.15
2022-12-23T10:47:01.249Z,19.35
2022-12-23T10:52:13.141Z,19.35
2022-12-23T10:57:20.008Z,20.47
2022-12-23T11:02:44.989Z,18.38
2022-12-23T11:07:47.997Z,18.20
2022-12-23T11:12:54.811Z,16.98
2022-12-23T11:18:03.055Z,17.92
2022-12-23T11:23:08.272Z,17.67
2022-12-23T11:28:17.425Z,17.23
2022-12-23T11:33:25.252Z,17.30
2022-12-23T11:38:28.068Z,17.63
2022-12-23T11:43:34.016Z,17.10
2022-12-23T11:48:36.783Z,18.15
2022-12-23T11:53:43.964Z,17.73
2022-12-23T11:58:52.451Z,17.45
2022-12-23T12:03:59.301Z,17.48
2022-12-23T12:09:05.419Z,16.05
2022-12-23T12:14:11.535Z,17.20
2022-12-23T12:19:21.217Z,17.33
2022-12-23T12:24:28.180Z,17.52
2022-12-23T12:29:38.432Z,17.67
2022-12-23T12:34:50.605Z,17.45
2022-12-23T12:39:57.634Z,20.10
2022-12-23T12:45:14.387Z,18.08
2022-12-23T12:50:21.428Z,16.50
2022-12-23T12:55:29.237Z,18.25
2022-12-23T13:00:47.066Z,20.83
2022-12-23T13:06:00.822Z,24.02
2022-12-23T13:11:10.703Z,23.73
2022-12-23T13:16:24.539Z,25.05
2022-12-23T13:21:32.645Z,24.55
2022-12-23T13:26:39.879Z,22.48
2022-12-23T13:31:50.778Z,20.10
2022-12-23T13:36:59.104Z,18.77
2022-12-23T13:42:06.038Z,18.83
2022-12-23T13:47:19.435Z,23.85
2022-12-23T13:52:30.747Z,24.73
2022-12-23T13:57:49.145Z,25.10
2022-12-23T14:03:05.868Z,23.50
2022-12-23T14:08:22.849Z,23.75
2022-12-23T14:13:28.429Z,23.05
2022-12-23T14:18:49.191Z,23.35
2022-12-23T14:24:14.159Z,23.48
2022-12-23T14:29:35.347Z,24.13
2022-12-23T14:34:59.520Z,22.95
2022-12-23T14:40:35.472Z,24.05
2022-12-23T14:45:43.657Z,23.83
2022-12-23T14:50:58.525Z,23.25
2022-12-23T14:56:12.896Z,23.48
2022-12-23T15:01:18.148Z,21.35
2022-12-23T15:06:30.278Z,25.75
2022-12-23T15:11:35.656Z,25.80
2022-12-23T15:16:44.884Z,30.40
2022-12-23T15:21:56.686Z,29.52
2022-12-23T15:27:25.936Z,28.73
2022-12-23T15:32:28.142Z,28.80
2022-12-23T15:37:33.361Z,25.80
2022-12-23T15:42:38.226Z,27.50
2022-12-23T15:47:42.978Z,29.30
2022-12-23T15:52:50.165Z,27.85
2022-12-23T15:57:53.414Z,28.55
2022-12-23T16:03:00.914Z,27.77
2022-12-23T16:08:28.539Z,28.23
2022-12-23T16:13:33.709Z,30.02
2022-12-23T16:18:47.284Z,29.33
2022-12-23T16:23:53.597Z,27.75
2022-12-23T16:29:00.195Z,27.35
2022-12-23T16:34:08.149Z,25.88
2022-12-23T16:39:21.635Z,25.02
2022-12-23T16:44:24.464Z,26.73
2022-12-23T16:49:33.416Z,25.05
2022-12-23T16:54:38.295Z,27.30
2022-12-23T16:59:41.242Z,32.03
2022-12-23T17:04:44.630Z,32.58
2022-12-23T17:09:48.743Z,28.63
2022-12-23T17:14:51.511Z,25.13
2022-12-23T17:19:56.227Z,25.25
2022-12-23T17:25:00.398Z,25.00
2022-12-23T17:30:03.220Z,22.98
2022-12-23T17:35:06.511Z,22.67
2022-12-23T17:40:13.567Z,22.85
2022-12-23T17:45:24.753Z,23.55
2022-12-23T17:50:28.287Z,23.48
2022-12-23T17:55:32.510Z,25.67
2022-12-23T18:00:35.453Z,23.33
2022-12-23T18:05:38.343Z,22.98
2022-12-23T18:10:42.495Z,22.38
2022-12-23T18:15:46.320Z,24.00
2022-12-23T18:20:52.149Z,23.63
2022-12-23T18:25:57.290Z,22.80
2022-12-23T18:31:00.179Z,21.63
2022-12-23T18:36:03.029Z,20.95
2022-12-23T18:41:07.252Z,23.70
2022-12-23T18:46:10.176Z,21.80
2022-12-23T18:51:15.159Z,19.35
2022-12-23T18:56:21.355Z,21.55
2022-12-23T19:01:24.619Z,22.10
2022-12-23T19:06:27.638Z,24.33
2022-12-23T19:11:32.371Z,22.13
2022-12-23T19:16:35.262Z,23.05
2022-12-23T19:21:38.157Z,20.50
2022-12-23T19:26:42.385Z,20.80
2022-12-23T19:31:45.120Z,21.42
2022-12-23T19:36:48.002Z,22.50
2022-12-23T19:41:52.738Z,23.38
2022-12-23T19:46:55.530Z,19.55
2022-12-23T19:51:58.404Z,18.48
2022-12-23T19:57:02.641Z,20.60
2022-12-23T20:02:05.569Z,19.63
2022-12-23T20:07:08.697Z,19.30
2022-12-23T20:12:13.232Z,17.60
2022-12-23T20:17:16.533Z,19.33
2022-12-23T20:22:19.409Z,23.25
2022-12-23T20:27:27.899Z,23.17
2022-12-23T20:32:31.145Z,20.98
2022-12-23T20:37:33.929Z,20.60
2022-12-23T20:42:38.251Z,20.60
2022-12-23T20:47:41.062Z,20.65
2022-12-23T20:52:43.999Z,21.15
2022-12-23T20:57:48.115Z,19.98
2022-12-23T21:02:50.974Z,22.10
2022-12-23T21:07:53.798Z,24.80
2022-12-23T21:12:58.018Z,27.92
2022-12-23T21:18:01.162Z,26.48
2022-12-23T21:23:03.951Z,24.75
2022-12-23T21:28:08.103Z,26.17
2022-12-23T21:33:10.868Z,23.55
2022-12-23T21:38:13.651Z,19.75
2022-12-23T21:43:17.808Z,23.67
2022-12-23T21:48:20.570Z,24.95
2022-12-23T21:53:23.350Z,24.60
2022-12-23T21:58:27.490Z,25.20
2022-12-23T22:03:30.253Z,20.88
2022-12-23T22:08:33.026Z,15.98
2022-12-23T22:13:37.788Z,15.77
2022-12-23T22:18:41.366Z,17.00
2022-12-23T22:23:46.330Z,15.05
2022-12-23T22:28:50.927Z,12.23
2022-12-23T22:33:53.841Z,14.07
2022-12-23T22:38:59.412Z,13.02
2022-12-23T22:44:03.594Z,12.50
2022-12-23T22:49:06.572Z,9.93
2022-12-23T22:54:09.821Z,9.40
2022-12-23T22:59:21.224Z,11.55
2022-12-23T23:04:24.337Z,12.23
2022-12-23T23:09:27.156Z,11.15
2022-12-23T23:14:51.811Z,10.30
2022-12-23T23:19:54.755Z,6.97
2022-12-23T23:24:57.470Z,7.20
2022-12-23T23:30:01.570Z,4.68
2022-12-23T23:35:10.543Z,7.40
2022-12-23T23:40:14.002Z,4.60
2022-12-23T23:45:18.251Z,4.78
2022-12-23T23:50:21.128Z,6.53
2022-12-23T23:55:23.944Z,5.20
